メインページ
METAR-TAF:

METAR-TAF

空港 :

ドバイ国際空港

ドバイ, アラブ首長国連邦

緯度: 25-15-10N, 経度: 055-21-52E, 海抜: 8m

現時点の気象観測

当レポートは40分前の09:00(UTC)に作成
北西の風 5kt、西/北西からの間で変化する
気温 26°C
湿度 51%
気圧 1019 hPa
視程10km以上
高度3500ftの雲はほとんどない

METAR: OMDB 190900Z 32005KT 300V360 9999 FEW035 26/15 Q1019 NOSIG

時間: 13:40 (09:40 UTC)

予報

当レポートは4時間39分前の05:01(UTC)に作成
予報は19日の 06時(UTC)から 20日の 12時(UTC)まで有効
南/南西の風 7kt
視程10km以上
高度4000ftの雲はほとんどない
19日の 08時(UTC)から 19日の 10時(UTC)まで徐々に
西の風 10kt
19日の 15時(UTC)から 19日の 17時(UTC)まで徐々に
南東の風 5kt
確率 30%
20日の 02時(UTC)から 20日の 05時(UTC)まで
視程: 4000m
煙霧
20日の 09時(UTC)から 20日の 11時(UTC)まで徐々に
北/北西の風 10kt

TAF: OMDB 190501Z 1906/2012 20007KT 9999 FEW040 BECMG 1908/1910 28010KT BECMG 1915/1917 13005KT PROB30 2002/2005 4000 HZ BECMG 2009/2011 34010KT

4,000以上の空港の気象観測と天気予報(METAR報とTAF報)

利用可能な観測所は地図上に黄色い丸と赤い丸で示す。

丸の上にカーソルを重ねると観測所名を参照できる。

次にクリックすると気象観測と天気予報を参照できる。

マップの切り替え:黒色「×」印の緑ボタンをクリックして拡大、「-」印の緑ボタンをクリックして縮小、緑色の三角印をクリックして隣りの地図に切り替え


METAR-TAF: